sensor_id;sensor_type;location;lat;lon;timestamp;temperature;humidity
63047;DHT22;62025;39.238;9.126;2023-09-19T00:00:38;28.00;74.00
63047;DHT22;62025;39.238;9.126;2023-09-19T00:03:07;28.00;73.40
63047;DHT22;62025;39.238;9.126;2023-09-19T00:05:37;28.00;72.90
63047;DHT22;62025;39.238;9.126;2023-09-19T00:08:04;28.00;72.40
63047;DHT22;62025;39.238;9.126;2023-09-19T00:10:32;28.00;72.00
63047;DHT22;62025;39.238;9.126;2023-09-19T00:13:03;28.00;71.70
63047;DHT22;62025;39.238;9.126;2023-09-19T00:15:39;28.10;71.50
63047;DHT22;62025;39.238;9.126;2023-09-19T00:18:14;28.00;72.20
63047;DHT22;62025;39.238;9.126;2023-09-19T00:20:41;28.00;72.80
63047;DHT22;62025;39.238;9.126;2023-09-19T00:23:07;28.00;72.70
63047;DHT22;62025;39.238;9.126;2023-09-19T00:25:36;28.00;72.80
63047;DHT22;62025;39.238;9.126;2023-09-19T00:28:03;28.00;72.80
63047;DHT22;62025;39.238;9.126;2023-09-19T00:30:36;28.00;72.50
63047;DHT22;62025;39.238;9.126;2023-09-19T00:33:04;28.00;72.80
63047;DHT22;62025;39.238;9.126;2023-09-19T00:35:33;27.90;72.80
63047;DHT22;62025;39.238;9.126;2023-09-19T00:37:59;27.90;72.20
63047;DHT22;62025;39.238;9.126;2023-09-19T00:40:25;27.90;72.00
63047;DHT22;62025;39.238;9.126;2023-09-19T00:42:51;28.00;71.80
63047;DHT22;62025;39.238;9.126;2023-09-19T00:45:25;27.90;72.10
63047;DHT22;62025;39.238;9.126;2023-09-19T00:47:51;28.00;72.00
63047;DHT22;62025;39.238;9.126;2023-09-19T00:50:18;28.00;71.30
63047;DHT22;62025;39.238;9.126;2023-09-19T00:52:48;27.90;69.80
63047;DHT22;62025;39.238;9.126;2023-09-19T00:55:16;27.90;68.40
63047;DHT22;62025;39.238;9.126;2023-09-19T00:57:45;27.90;66.70
63047;DHT22;62025;39.238;9.126;2023-09-19T01:00:13;27.90;66.10
63047;DHT22;62025;39.238;9.126;2023-09-19T01:02:45;27.90;66.00
63047;DHT22;62025;39.238;9.126;2023-09-19T01:05:12;27.90;66.20
63047;DHT22;62025;39.238;9.126;2023-09-19T01:07:39;27.90;66.50
63047;DHT22;62025;39.238;9.126;2023-09-19T01:10:14;27.90;66.00
63047;DHT22;62025;39.238;9.126;2023-09-19T01:18:30;27.90;67.80
63047;DHT22;62025;39.238;9.126;2023-09-19T01:21:15;27.90;69.50
63047;DHT22;62025;39.238;9.126;2023-09-19T01:29:39;27.70;70.90
63047;DHT22;62025;39.238;9.126;2023-09-19T01:32:11;27.70;70.90
63047;DHT22;62025;39.238;9.126;2023-09-19T01:34:46;27.70;71.10
63047;DHT22;62025;39.238;9.126;2023-09-19T01:37:19;27.70;71.10
63047;DHT22;62025;39.238;9.126;2023-09-19T01:40:10;27.70;71.10
63047;DHT22;62025;39.238;9.126;2023-09-19T01:45:52;27.60;71.40
63047;DHT22;62025;39.238;9.126;2023-09-19T01:48:41;27.50;71.40
63047;DHT22;62025;39.238;9.126;2023-09-19T01:51:22;27.40;71.80
63047;DHT22;62025;39.238;9.126;2023-09-19T01:54:02;27.40;72.00
63047;DHT22;62025;39.238;9.126;2023-09-19T01:56:50;27.50;71.90
63047;DHT22;62025;39.238;9.126;2023-09-19T01:59:24;27.40;71.90
63047;DHT22;62025;39.238;9.126;2023-09-19T02:01:55;27.40;71.80
63047;DHT22;62025;39.238;9.126;2023-09-19T02:04:21;27.40;72.10
63047;DHT22;62025;39.238;9.126;2023-09-19T02:06:47;27.40;72.00
63047;DHT22;62025;39.238;9.126;2023-09-19T02:09:14;27.40;71.90
63047;DHT22;62025;39.238;9.126;2023-09-19T02:11:40;27.40;71.90
63047;DHT22;62025;39.238;9.126;2023-09-19T02:14:08;27.40;72.10
63047;DHT22;62025;39.238;9.126;2023-09-19T02:16:34;27.40;72.00
63047;DHT22;62025;39.238;9.126;2023-09-19T02:19:00;27.40;71.90
63047;DHT22;62025;39.238;9.126;2023-09-19T02:21:30;27.40;71.80
63047;DHT22;62025;39.238;9.126;2023-09-19T02:23:58;27.40;71.80
63047;DHT22;62025;39.238;9.126;2023-09-19T02:26:24;27.50;71.80
63047;DHT22;62025;39.238;9.126;2023-09-19T02:28:50;27.40;71.60
63047;DHT22;62025;39.238;9.126;2023-09-19T02:31:16;27.50;71.60
63047;DHT22;62025;39.238;9.126;2023-09-19T02:33:42;27.40;71.50
63047;DHT22;62025;39.238;9.126;2023-09-19T02:36:09;27.40;71.60
63047;DHT22;62025;39.238;9.126;2023-09-19T02:38:35;27.40;71.40
63047;DHT22;62025;39.238;9.126;2023-09-19T02:41:03;27.40;71.10
63047;DHT22;62025;39.238;9.126;2023-09-19T02:43:29;27.40;71.00
63047;DHT22;62025;39.238;9.126;2023-09-19T02:45:55;27.40;71.10
63047;DHT22;62025;39.238;9.126;2023-09-19T02:48:22;27.40;70.80
63047;DHT22;62025;39.238;9.126;2023-09-19T02:50:52;27.30;70.20
63047;DHT22;62025;39.238;9.126;2023-09-19T02:53:18;27.40;70.00
63047;DHT22;62025;39.238;9.126;2023-09-19T02:55:44;27.30;69.60
63047;DHT22;62025;39.238;9.126;2023-09-19T02:58:10;27.30;69.30
63047;DHT22;62025;39.238;9.126;2023-09-19T03:00:37;27.20;68.90
63047;DHT22;62025;39.238;9.126;2023-09-19T03:03:04;27.20;68.50
63047;DHT22;62025;39.238;9.126;2023-09-19T03:05:32;27.20;67.80
63047;DHT22;62025;39.238;9.126;2023-09-19T03:07:58;27.20;67.30
63047;DHT22;62025;39.238;9.126;2023-09-19T03:10:26;27.10;67.00
63047;DHT22;62025;39.238;9.126;2023-09-19T03:12:54;27.10;67.00
63047;DHT22;62025;39.238;9.126;2023-09-19T03:15:20;27.00;66.60
63047;DHT22;62025;39.238;9.126;2023-09-19T03:17:49;27.00;66.40
63047;DHT22;62025;39.238;9.126;2023-09-19T03:20:19;27.00;66.30
63047;DHT22;62025;39.238;9.126;2023-09-19T03:22:48;27.10;66.10
63047;DHT22;62025;39.238;9.126;2023-09-19T03:25:15;27.00;65.90
63047;DHT22;62025;39.238;9.126;2023-09-19T03:27:45;27.00;65.80
63047;DHT22;62025;39.238;9.126;2023-09-19T03:30:12;26.90;65.80
63047;DHT22;62025;39.238;9.126;2023-09-19T03:32:47;26.90;65.40
63047;DHT22;62025;39.238;9.126;2023-09-19T03:35:17;27.00;65.20
63047;DHT22;62025;39.238;9.126;2023-09-19T03:37:43;26.90;65.00
63047;DHT22;62025;39.238;9.126;2023-09-19T03:40:10;27.00;64.90
63047;DHT22;62025;39.238;9.126;2023-09-19T03:42:41;27.00;64.90
63047;DHT22;62025;39.238;9.126;2023-09-19T03:45:10;26.90;64.80
63047;DHT22;62025;39.238;9.126;2023-09-19T03:47:44;26.90;64.80
63047;DHT22;62025;39.238;9.126;2023-09-19T03:50:13;26.90;64.80
63047;DHT22;62025;39.238;9.126;2023-09-19T03:52:44;26.90;64.80
63047;DHT22;62025;39.238;9.126;2023-09-19T03:55:10;26.90;64.80
63047;DHT22;62025;39.238;9.126;2023-09-19T03:57:38;26.90;64.70
63047;DHT22;62025;39.238;9.126;2023-09-19T04:00:05;26.90;64.80
63047;DHT22;62025;39.238;9.126;2023-09-19T04:02:39;26.80;64.60
63047;DHT22;62025;39.238;9.126;2023-09-19T04:05:06;26.90;64.60
63047;DHT22;62025;39.238;9.126;2023-09-19T04:07:32;26.90;64.60
63047;DHT22;62025;39.238;9.126;2023-09-19T04:10:00;26.80;64.50
63047;DHT22;62025;39.238;9.126;2023-09-19T04:12:27;26.80;64.20
63047;DHT22;62025;39.238;9.126;2023-09-19T04:14:52;26.80;64.30
63047;DHT22;62025;39.238;9.126;2023-09-19T04:17:18;26.80;64.00
63047;DHT22;62025;39.238;9.126;2023-09-19T04:19:44;26.70;63.90
63047;DHT22;62025;39.238;9.126;2023-09-19T04:22:11;26.80;63.50
63047;DHT22;62025;39.238;9.126;2023-09-19T04:24:38;26.80;63.50
63047;DHT22;62025;39.238;9.126;2023-09-19T04:27:04;26.70;63.40
63047;DHT22;62025;39.238;9.126;2023-09-19T04:29:30;26.70;63.50
63047;DHT22;62025;39.238;9.126;2023-09-19T04:31:57;26.70;63.50
63047;DHT22;62025;39.238;9.126;2023-09-19T04:34:23;26.80;63.10
63047;DHT22;62025;39.238;9.126;2023-09-19T04:36:50;26.70;63.10
63047;DHT22;62025;39.238;9.126;2023-09-19T04:39:16;26.80;63.10
63047;DHT22;62025;39.238;9.126;2023-09-19T04:41:43;26.70;63.10
63047;DHT22;62025;39.238;9.126;2023-09-19T04:44:11;26.70;63.00
63047;DHT22;62025;39.238;9.126;2023-09-19T04:46:38;26.70;62.90
63047;DHT22;62025;39.238;9.126;2023-09-19T04:49:04;26.70;62.70
63047;DHT22;62025;39.238;9.126;2023-09-19T04:51:30;26.70;62.80
63047;DHT22;62025;39.238;9.126;2023-09-19T04:54:00;26.70;62.80
63047;DHT22;62025;39.238;9.126;2023-09-19T04:56:26;26.70;62.70
63047;DHT22;62025;39.238;9.126;2023-09-19T04:58:54;26.70;62.70
63047;DHT22;62025;39.238;9.126;2023-09-19T05:01:20;26.70;62.80
63047;DHT22;62025;39.238;9.126;2023-09-19T05:03:48;26.70;62.70
63047;DHT22;62025;39.238;9.126;2023-09-19T05:06:19;26.60;62.90
63047;DHT22;62025;39.238;9.126;2023-09-19T05:08:49;26.60;62.90
63047;DHT22;62025;39.238;9.126;2023-09-19T05:11:19;26.60;62.90
63047;DHT22;62025;39.238;9.126;2023-09-19T05:13:49;26.50;63.00
63047;DHT22;62025;39.238;9.126;2023-09-19T05:16:16;26.50;63.20
63047;DHT22;62025;39.238;9.126;2023-09-19T05:18:42;26.60;63.00
63047;DHT22;62025;39.238;9.126;2023-09-19T05:21:08;26.50;62.90
63047;DHT22;62025;39.238;9.126;2023-09-19T05:23:34;26.40;63.00
63047;DHT22;62025;39.238;9.126;2023-09-19T05:26:00;26.40;62.70
63047;DHT22;62025;39.238;9.126;2023-09-19T05:28:26;26.40;62.00
63047;DHT22;62025;39.238;9.126;2023-09-19T05:30:53;26.40;61.70
63047;DHT22;62025;39.238;9.126;2023-09-19T05:33:19;26.40;61.60
63047;DHT22;62025;39.238;9.126;2023-09-19T05:35:47;26.40;61.60
63047;DHT22;62025;39.238;9.126;2023-09-19T05:38:14;26.40;61.80
63047;DHT22;62025;39.238;9.126;2023-09-19T05:40:45;26.40;62.20
63047;DHT22;62025;39.238;9.126;2023-09-19T05:43:11;26.40;62.20
63047;DHT22;62025;39.238;9.126;2023-09-19T05:45:37;26.40;62.20
63047;DHT22;62025;39.238;9.126;2023-09-19T05:48:11;26.40;62.20
63047;DHT22;62025;39.238;9.126;2023-09-19T05:50:42;26.40;62.00
63047;DHT22;62025;39.238;9.126;2023-09-19T05:53:09;26.50;61.10
63047;DHT22;62025;39.238;9.126;2023-09-19T05:55:40;26.40;60.30
63047;DHT22;62025;39.238;9.126;2023-09-19T05:58:06;26.60;60.30
63047;DHT22;62025;39.238;9.126;2023-09-19T06:00:32;26.70;59.80
63047;DHT22;62025;39.238;9.126;2023-09-19T06:02:59;26.60;59.70
63047;DHT22;62025;39.238;9.126;2023-09-19T06:05:26;26.70;59.50
63047;DHT22;62025;39.238;9.126;2023-09-19T06:07:54;26.60;59.40
63047;DHT22;62025;39.238;9.126;2023-09-19T06:10:20;26.70;59.30
63047;DHT22;62025;39.238;9.126;2023-09-19T06:12:46;26.70;59.20
63047;DHT22;62025;39.238;9.126;2023-09-19T06:15:14;26.70;59.10
63047;DHT22;62025;39.238;9.126;2023-09-19T06:17:48;26.80;59.30
63047;DHT22;62025;39.238;9.126;2023-09-19T06:20:16;26.90;59.20
63047;DHT22;62025;39.238;9.126;2023-09-19T06:22:43;26.90;58.70
63047;DHT22;62025;39.238;9.126;2023-09-19T06:25:12;27.00;58.90
63047;DHT22;62025;39.238;9.126;2023-09-19T06:27:45;27.10;58.40
63047;DHT22;62025;39.238;9.126;2023-09-19T06:30:12;27.20;58.20
63047;DHT22;62025;39.238;9.126;2023-09-19T06:32:40;27.30;58.10
63047;DHT22;62025;39.238;9.126;2023-09-19T06:35:10;27.40;57.70
63047;DHT22;62025;39.238;9.126;2023-09-19T06:37:37;27.50;57.70
63047;DHT22;62025;39.238;9.126;2023-09-19T06:40:14;27.50;57.80
63047;DHT22;62025;39.238;9.126;2023-09-19T06:42:44;27.60;57.50
63047;DHT22;62025;39.238;9.126;2023-09-19T06:45:12;27.60;57.10
63047;DHT22;62025;39.238;9.126;2023-09-19T06:47:46;27.60;56.80
63047;DHT22;62025;39.238;9.126;2023-09-19T06:50:20;27.70;56.50
63047;DHT22;62025;39.238;9.126;2023-09-19T06:52:52;27.70;56.40
63047;DHT22;62025;39.238;9.126;2023-09-19T06:55:21;27.70;56.50
63047;DHT22;62025;39.238;9.126;2023-09-19T06:57:50;27.70;56.60
63047;DHT22;62025;39.238;9.126;2023-09-19T07:00:17;27.70;56.60
63047;DHT22;62025;39.238;9.126;2023-09-19T07:03:03;27.60;56.60
63047;DHT22;62025;39.238;9.126;2023-09-19T07:05:34;27.80;56.30
63047;DHT22;62025;39.238;9.126;2023-09-19T07:08:09;28.00;55.70
63047;DHT22;62025;39.238;9.126;2023-09-19T07:10:38;28.20;55.40
63047;DHT22;62025;39.238;9.126;2023-09-19T07:13:14;28.30;54.80
63047;DHT22;62025;39.238;9.126;2023-09-19T07:15:43;28.50;54.10
63047;DHT22;62025;39.238;9.126;2023-09-19T07:18:16;28.60;53.70
63047;DHT22;62025;39.238;9.126;2023-09-19T07:20:46;28.70;53.30
63047;DHT22;62025;39.238;9.126;2023-09-19T07:23:19;28.70;53.30
63047;DHT22;62025;39.238;9.126;2023-09-19T07:25:48;28.80;53.10
63047;DHT22;62025;39.238;9.126;2023-09-19T07:28:15;28.90;52.90
63047;DHT22;62025;39.238;9.126;2023-09-19T07:30:41;29.00;52.40
63047;DHT22;62025;39.238;9.126;2023-09-19T07:33:07;29.20;52.10
63047;DHT22;62025;39.238;9.126;2023-09-19T07:35:37;29.40;51.90
63047;DHT22;62025;39.238;9.126;2023-09-19T07:38:07;29.40;51.60
63047;DHT22;62025;39.238;9.126;2023-09-19T07:40:33;29.60;50.90
63047;DHT22;62025;39.238;9.126;2023-09-19T07:43:00;29.70;50.60
63047;DHT22;62025;39.238;9.126;2023-09-19T07:45:33;29.80;50.30
63047;DHT22;62025;39.238;9.126;2023-09-19T07:47:59;29.90;49.90
63047;DHT22;62025;39.238;9.126;2023-09-19T07:50:30;30.00;49.40
63047;DHT22;62025;39.238;9.126;2023-09-19T07:52:56;30.10;48.80
63047;DHT22;62025;39.238;9.126;2023-09-19T07:55:22;30.20;48.40
63047;DHT22;62025;39.238;9.126;2023-09-19T07:57:54;30.30;48.50
63047;DHT22;62025;39.238;9.126;2023-09-19T08:11:35;30.10;49.00
63047;DHT22;62025;39.238;9.126;2023-09-19T08:14:01;29.90;48.10
63047;DHT22;62025;39.238;9.126;2023-09-19T08:16:27;29.80;47.90
63047;DHT22;62025;39.238;9.126;2023-09-19T08:18:53;30.00;47.60
63047;DHT22;62025;39.238;9.126;2023-09-19T08:21:22;30.00;47.30
63047;DHT22;62025;39.238;9.126;2023-09-19T08:23:50;30.20;46.80
63047;DHT22;62025;39.238;9.126;2023-09-19T08:26:16;30.40;46.50
63047;DHT22;62025;39.238;9.126;2023-09-19T08:28:42;30.40;45.90
63047;DHT22;62025;39.238;9.126;2023-09-19T08:31:08;30.60;45.70
63047;DHT22;62025;39.238;9.126;2023-09-19T08:33:35;30.60;45.30
63047;DHT22;62025;39.238;9.126;2023-09-19T08:36:03;30.50;44.90
63047;DHT22;62025;39.238;9.126;2023-09-19T08:38:34;30.50;44.40
63047;DHT22;62025;39.238;9.126;2023-09-19T08:41:05;30.90;43.60
63047;DHT22;62025;39.238;9.126;2023-09-19T08:43:33;31.10;43.30
63047;DHT22;62025;39.238;9.126;2023-09-19T08:48:34;31.30;42.90
63047;DHT22;62025;39.238;9.126;2023-09-19T08:51:06;31.50;42.30
63047;DHT22;62025;39.238;9.126;2023-09-19T08:56:18;32.20;41.20
63047;DHT22;62025;39.238;9.126;2023-09-19T08:58:51;32.40;40.60
63047;DHT22;62025;39.238;9.126;2023-09-19T09:01:21;32.40;39.90
63047;DHT22;62025;39.238;9.126;2023-09-19T09:03:54;32.60;39.50
63047;DHT22;62025;39.238;9.126;2023-09-19T09:06:23;32.80;38.70
63047;DHT22;62025;39.238;9.126;2023-09-19T09:08:51;33.00;38.70
63047;DHT22;62025;39.238;9.126;2023-09-19T09:11:19;33.10;38.00
63047;DHT22;62025;39.238;9.126;2023-09-19T09:13:47;33.20;37.90
63047;DHT22;62025;39.238;9.126;2023-09-19T09:16:14;33.20;37.40
63047;DHT22;62025;39.238;9.126;2023-09-19T09:18:45;33.20;37.40
63047;DHT22;62025;39.238;9.126;2023-09-19T09:21:12;33.50;37.30
63047;DHT22;62025;39.238;9.126;2023-09-19T09:23:40;33.60;36.80
63047;DHT22;62025;39.238;9.126;2023-09-19T09:26:06;33.90;36.10
63047;DHT22;62025;39.238;9.126;2023-09-19T09:28:34;34.00;36.00
63047;DHT22;62025;39.238;9.126;2023-09-19T09:31:04;34.00;35.80
63047;DHT22;62025;39.238;9.126;2023-09-19T09:33:36;34.40;35.40
63047;DHT22;62025;39.238;9.126;2023-09-19T09:36:03;34.50;35.20
63047;DHT22;62025;39.238;9.126;2023-09-19T09:38:43;34.10;34.70
63047;DHT22;62025;39.238;9.126;2023-09-19T09:41:09;34.00;34.70
63047;DHT22;62025;39.238;9.126;2023-09-19T09:43:41;34.00;35.10
63047;DHT22;62025;39.238;9.126;2023-09-19T09:48:59;34.30;34.60
63047;DHT22;62025;39.238;9.126;2023-09-19T09:52:07;34.50;34.00
63047;DHT22;62025;39.238;9.126;2023-09-19T09:55:01;34.60;33.90
63047;DHT22;62025;39.238;9.126;2023-09-19T09:57:31;34.30;34.40
63047;DHT22;62025;39.238;9.126;2023-09-19T09:59:58;34.00;34.70
63047;DHT22;62025;39.238;9.126;2023-09-19T10:02:54;34.00;34.60
63047;DHT22;62025;39.238;9.126;2023-09-19T10:05:20;34.00;34.10
63047;DHT22;62025;39.238;9.126;2023-09-19T10:07:53;33.90;34.40
63047;DHT22;62025;39.238;9.126;2023-09-19T10:10:37;33.90;34.50
63047;DHT22;62025;39.238;9.126;2023-09-19T10:13:07;34.10;34.00
63047;DHT22;62025;39.238;9.126;2023-09-19T10:15:50;34.00;34.50
63047;DHT22;62025;39.238;9.126;2023-09-19T10:18:26;33.90;33.00
63047;DHT22;62025;39.238;9.126;2023-09-19T10:20:55;33.70;33.80
63047;DHT22;62025;39.238;9.126;2023-09-19T10:23:22;34.10;33.60
63047;DHT22;62025;39.238;9.126;2023-09-19T10:25:53;34.20;33.60
63047;DHT22;62025;39.238;9.126;2023-09-19T10:28:20;34.40;33.40
63047;DHT22;62025;39.238;9.126;2023-09-19T10:30:53;34.80;32.50
63047;DHT22;62025;39.238;9.126;2023-09-19T10:33:24;34.50;32.90
63047;DHT22;62025;39.238;9.126;2023-09-19T10:35:58;34.40;32.80
63047;DHT22;62025;39.238;9.126;2023-09-19T10:38:27;34.20;32.60
63047;DHT22;62025;39.238;9.126;2023-09-19T10:40:56;34.00;32.90
63047;DHT22;62025;39.238;9.126;2023-09-19T10:43:30;33.60;33.20
63047;DHT22;62025;39.238;9.126;2023-09-19T10:46:06;33.70;33.50
63047;DHT22;62025;39.238;9.126;2023-09-19T10:48:35;33.60;33.40
63047;DHT22;62025;39.238;9.126;2023-09-19T10:53:48;33.30;33.60
63047;DHT22;62025;39.238;9.126;2023-09-19T10:56:23;33.10;33.50
63047;DHT22;62025;39.238;9.126;2023-09-19T10:59:06;33.40;33.50
63047;DHT22;62025;39.238;9.126;2023-09-19T11:01:42;33.20;33.50
63047;DHT22;62025;39.238;9.126;2023-09-19T11:07:06;33.00;33.40
63047;DHT22;62025;39.238;9.126;2023-09-19T11:15:03;32.80;33.70
63047;DHT22;62025;39.238;9.126;2023-09-19T11:17:41;32.80;33.70
63047;DHT22;62025;39.238;9.126;2023-09-19T11:30:35;32.80;33.70
63047;DHT22;62025;39.238;9.126;2023-09-19T11:33:23;32.70;33.90
63047;DHT22;62025;39.238;9.126;2023-09-19T11:36:12;32.60;33.90
63047;DHT22;62025;39.238;9.126;2023-09-19T11:41:36;32.90;34.00
63047;DHT22;62025;39.238;9.126;2023-09-19T11:46:31;33.00;33.90
63047;DHT22;62025;39.238;9.126;2023-09-19T11:49:09;33.10;33.60
63047;DHT22;62025;39.238;9.126;2023-09-19T11:51:42;33.20;33.50
63047;DHT22;62025;39.238;9.126;2023-09-19T11:54:14;32.90;33.80
63047;DHT22;62025;39.238;9.126;2023-09-19T11:56:53;32.90;34.10
63047;DHT22;62025;39.238;9.126;2023-09-19T11:59:27;32.90;34.00
63047;DHT22;62025;39.238;9.126;2023-09-19T12:02:01;32.90;33.90
63047;DHT22;62025;39.238;9.126;2023-09-19T12:04:38;32.80;34.40
63047;DHT22;62025;39.238;9.126;2023-09-19T12:07:08;32.50;35.10
63047;DHT22;62025;39.238;9.126;2023-09-19T12:09:46;32.60;35.10
63047;DHT22;62025;39.238;9.126;2023-09-19T12:14:49;32.30;36.10
63047;DHT22;62025;39.238;9.126;2023-09-19T12:17:17;32.40;36.20
63047;DHT22;62025;39.238;9.126;2023-09-19T12:19:54;32.30;35.80
63047;DHT22;62025;39.238;9.126;2023-09-19T12:22:21;32.10;35.20
63047;DHT22;62025;39.238;9.126;2023-09-19T12:24:47;32.00;35.40
63047;DHT22;62025;39.238;9.126;2023-09-19T12:27:14;31.90;35.70
63047;DHT22;62025;39.238;9.126;2023-09-19T12:29:48;32.00;35.80
63047;DHT22;62025;39.238;9.126;2023-09-19T12:32:15;32.10;35.90
63047;DHT22;62025;39.238;9.126;2023-09-19T12:34:53;32.00;36.10
63047;DHT22;62025;39.238;9.126;2023-09-19T12:37:20;32.10;35.60
63047;DHT22;62025;39.238;9.126;2023-09-19T12:40:04;32.00;35.60
63047;DHT22;62025;39.238;9.126;2023-09-19T12:42:46;32.00;35.90
63047;DHT22;62025;39.238;9.126;2023-09-19T12:45:14;31.90;35.50
63047;DHT22;62025;39.238;9.126;2023-09-19T12:51:10;31.90;35.90
63047;DHT22;62025;39.238;9.126;2023-09-19T12:53:46;31.90;35.60
63047;DHT22;62025;39.238;9.126;2023-09-19T12:56:15;31.80;36.00
63047;DHT22;62025;39.238;9.126;2023-09-19T12:58:54;31.80;36.20
63047;DHT22;62025;39.238;9.126;2023-09-19T13:01:29;31.80;36.60
63047;DHT22;62025;39.238;9.126;2023-09-19T13:04:17;31.70;35.90
63047;DHT22;62025;39.238;9.126;2023-09-19T13:06:55;31.80;36.00
63047;DHT22;62025;39.238;9.126;2023-09-19T13:09:27;31.90;36.10
63047;DHT22;62025;39.238;9.126;2023-09-19T13:12:05;31.80;35.70
63047;DHT22;62025;39.238;9.126;2023-09-19T13:15:10;31.80;36.20
63047;DHT22;62025;39.238;9.126;2023-09-19T13:17:43;31.70;36.30
63047;DHT22;62025;39.238;9.126;2023-09-19T13:20:25;31.70;36.80
63047;DHT22;62025;39.238;9.126;2023-09-19T13:22:57;31.80;37.00
63047;DHT22;62025;39.238;9.126;2023-09-19T13:25:34;31.80;37.00
63047;DHT22;62025;39.238;9.126;2023-09-19T13:28:00;31.70;37.10
63047;DHT22;62025;39.238;9.126;2023-09-19T13:30:30;31.50;37.20
63047;DHT22;62025;39.238;9.126;2023-09-19T13:33:10;31.40;37.90
63047;DHT22;62025;39.238;9.126;2023-09-19T13:35:39;31.50;38.20
63047;DHT22;62025;39.238;9.126;2023-09-19T13:38:08;31.40;38.90
63047;DHT22;62025;39.238;9.126;2023-09-19T13:40:38;31.40;40.40
63047;DHT22;62025;39.238;9.126;2023-09-19T13:43:07;31.20;42.50
63047;DHT22;62025;39.238;9.126;2023-09-19T13:45:34;31.10;43.00
63047;DHT22;62025;39.238;9.126;2023-09-19T13:48:00;30.90;45.50
63047;DHT22;62025;39.238;9.126;2023-09-19T13:50:26;31.20;46.70
63047;DHT22;62025;39.238;9.126;2023-09-19T13:52:52;30.90;48.90
63047;DHT22;62025;39.238;9.126;2023-09-19T13:55:19;30.80;48.50
63047;DHT22;62025;39.238;9.126;2023-09-19T13:57:49;30.80;47.20
63047;DHT22;62025;39.238;9.126;2023-09-19T14:00:16;30.70;47.20
63047;DHT22;62025;39.238;9.126;2023-09-19T14:02:43;30.80;46.10
63047;DHT22;62025;39.238;9.126;2023-09-19T14:05:12;30.80;46.50
63047;DHT22;62025;39.238;9.126;2023-09-19T14:07:41;30.90;46.60
63047;DHT22;62025;39.238;9.126;2023-09-19T14:10:07;30.80;46.40
63047;DHT22;62025;39.238;9.126;2023-09-19T14:12:34;30.80;46.70
63047;DHT22;62025;39.238;9.126;2023-09-19T14:15:06;30.80;46.00
63047;DHT22;62025;39.238;9.126;2023-09-19T14:17:34;30.80;45.60
63047;DHT22;62025;39.238;9.126;2023-09-19T14:20:00;30.80;45.90
63047;DHT22;62025;39.238;9.126;2023-09-19T14:22:26;30.90;44.50
63047;DHT22;62025;39.238;9.126;2023-09-19T14:24:52;30.90;44.40
63047;DHT22;62025;39.238;9.126;2023-09-19T14:27:18;30.70;47.40
63047;DHT22;62025;39.238;9.126;2023-09-19T14:29:44;30.90;47.90
63047;DHT22;62025;39.238;9.126;2023-09-19T14:32:10;30.70;48.70
63047;DHT22;62025;39.238;9.126;2023-09-19T14:34:36;30.80;48.50
63047;DHT22;62025;39.238;9.126;2023-09-19T14:37:08;30.80;47.30
63047;DHT22;62025;39.238;9.126;2023-09-19T14:39:34;30.80;47.00
63047;DHT22;62025;39.238;9.126;2023-09-19T14:42:00;30.80;47.70
63047;DHT22;62025;39.238;9.126;2023-09-19T14:44:26;30.80;47.60
63047;DHT22;62025;39.238;9.126;2023-09-19T14:46:53;30.90;48.30
63047;DHT22;62025;39.238;9.126;2023-09-19T14:49:20;30.90;48.70
63047;DHT22;62025;39.238;9.126;2023-09-19T14:51:46;30.90;48.70
63047;DHT22;62025;39.238;9.126;2023-09-19T14:54:15;31.00;46.70
63047;DHT22;62025;39.238;9.126;2023-09-19T14:56:44;30.90;48.70
63047;DHT22;62025;39.238;9.126;2023-09-19T14:59:10;31.00;48.90
63047;DHT22;62025;39.238;9.126;2023-09-19T15:01:36;31.10;49.10
63047;DHT22;62025;39.238;9.126;2023-09-19T15:04:04;31.10;49.00
63047;DHT22;62025;39.238;9.126;2023-09-19T15:06:30;30.90;48.30
63047;DHT22;62025;39.238;9.126;2023-09-19T15:08:56;31.10;47.90
63047;DHT22;62025;39.238;9.126;2023-09-19T15:11:22;30.90;46.60
63047;DHT22;62025;39.238;9.126;2023-09-19T15:13:51;30.80;47.70
63047;DHT22;62025;39.238;9.126;2023-09-19T15:16:18;30.60;48.00
63047;DHT22;62025;39.238;9.126;2023-09-19T15:18:45;30.70;48.30
63047;DHT22;62025;39.238;9.126;2023-09-19T15:21:13;30.80;48.00
63047;DHT22;62025;39.238;9.126;2023-09-19T15:23:41;30.80;47.90
63047;DHT22;62025;39.238;9.126;2023-09-19T15:26:11;30.80;47.40
63047;DHT22;62025;39.238;9.126;2023-09-19T15:28:38;30.80;47.80
63047;DHT22;62025;39.238;9.126;2023-09-19T15:31:12;30.80;47.50
63047;DHT22;62025;39.238;9.126;2023-09-19T15:33:38;30.90;46.30
63047;DHT22;62025;39.238;9.126;2023-09-19T15:36:05;30.80;45.80
63047;DHT22;62025;39.238;9.126;2023-09-19T15:41:29;30.90;45.40
63047;DHT22;62025;39.238;9.126;2023-09-19T15:44:14;30.90;45.60
63047;DHT22;62025;39.238;9.126;2023-09-19T15:46:42;30.90;44.60
63047;DHT22;62025;39.238;9.126;2023-09-19T15:49:09;30.70;44.60
63047;DHT22;62025;39.238;9.126;2023-09-19T15:51:35;30.80;45.60
63047;DHT22;62025;39.238;9.126;2023-09-19T15:54:08;30.80;46.30
63047;DHT22;62025;39.238;9.126;2023-09-19T15:56:40;30.90;45.30
63047;DHT22;62025;39.238;9.126;2023-09-19T15:59:07;30.90;44.60
63047;DHT22;62025;39.238;9.126;2023-09-19T16:01:34;30.90;44.30
63047;DHT22;62025;39.238;9.126;2023-09-19T16:04:01;30.90;44.40
63047;DHT22;62025;39.238;9.126;2023-09-19T16:06:28;30.90;44.70
63047;DHT22;62025;39.238;9.126;2023-09-19T16:08:58;30.90;44.70
63047;DHT22;62025;39.238;9.126;2023-09-19T16:11:26;30.90;44.20
63047;DHT22;62025;39.238;9.126;2023-09-19T16:13:53;30.90;43.60
63047;DHT22;62025;39.238;9.126;2023-09-19T16:16:21;30.80;44.10
63047;DHT22;62025;39.238;9.126;2023-09-19T16:18:55;30.80;44.40
63047;DHT22;62025;39.238;9.126;2023-09-19T16:21:24;30.80;44.50
63047;DHT22;62025;39.238;9.126;2023-09-19T16:23:52;30.80;44.60
63047;DHT22;62025;39.238;9.126;2023-09-19T16:26:21;30.80;45.10
63047;DHT22;62025;39.238;9.126;2023-09-19T16:28:54;30.80;45.50
63047;DHT22;62025;39.238;9.126;2023-09-19T16:31:22;30.60;46.20
63047;DHT22;62025;39.238;9.126;2023-09-19T16:33:48;30.60;46.70
63047;DHT22;62025;39.238;9.126;2023-09-19T16:36:16;30.60;46.80
63047;DHT22;62025;39.238;9.126;2023-09-19T16:38:45;30.60;46.80
63047;DHT22;62025;39.238;9.126;2023-09-19T16:41:13;30.60;46.80
63047;DHT22;62025;39.238;9.126;2023-09-19T16:43:41;30.60;46.90
63047;DHT22;62025;39.238;9.126;2023-09-19T16:46:09;30.50;47.00
63047;DHT22;62025;39.238;9.126;2023-09-19T16:48:39;30.50;47.00
63047;DHT22;62025;39.238;9.126;2023-09-19T16:51:10;30.50;46.90
63047;DHT22;62025;39.238;9.126;2023-09-19T16:53:37;30.40;46.90
63047;DHT22;62025;39.238;9.126;2023-09-19T16:56:06;30.40;46.70